createdAt,value
2018-09-04T00:00:32.395Z,24.4
2018-09-04T00:01:23.306Z,24.4
2018-09-04T00:02:12.788Z,24.4
2018-09-04T00:03:03.200Z,24.4
2018-09-04T00:03:53.013Z,24.4
2018-09-04T00:04:44.103Z,24.4
2018-09-04T00:05:33.958Z,24.4
2018-09-04T00:06:23.460Z,24.4
2018-09-04T00:07:13.778Z,24.4
2018-09-04T00:08:04.088Z,24.4
2018-09-04T00:08:54.408Z,24.4
2018-09-04T00:09:43.998Z,24.4
2018-09-04T00:10:34.398Z,24.4
2018-09-04T00:11:24.360Z,24.4
2018-09-04T00:12:14.160Z,24.4
2018-09-04T00:31:45.362Z,24.4
2018-09-04T00:32:35.833Z,24.4
2018-09-04T00:33:25.529Z,24.4
2018-09-04T00:34:16.119Z,24.4
2018-09-04T00:35:05.662Z,24.4
2018-09-04T00:35:55.988Z,24.4
2018-09-04T00:36:45.543Z,24.4
2018-09-04T00:37:34.693Z,24.4
2018-09-04T00:38:25.863Z,24.4
2018-09-04T00:39:16.808Z,24.4
2018-09-04T00:40:06.031Z,24.4
2018-09-04T00:40:56.641Z,24.4
2018-09-04T00:41:46.968Z,24.4
2018-09-04T00:42:36.843Z,24.4
2018-09-04T00:43:27.119Z,24.4
2018-09-04T00:44:15.998Z,24.4
2018-09-04T00:45:06.440Z,24.4
2018-09-04T00:45:56.445Z,24.4
2018-09-04T00:46:46.907Z,24.4
2018-09-04T00:47:36.895Z,24.4
2018-09-04T00:48:26.344Z,24.4
2018-09-04T00:49:16.753Z,24.4
2018-09-04T00:50:06.538Z,24.4
2018-09-04T00:50:56.269Z,24.4
2018-09-04T00:51:47.676Z,24.4
2018-09-04T00:52:36.783Z,24.4
2018-09-04T00:53:26.485Z,24.4
2018-09-04T00:54:16.808Z,24.4
2018-09-04T00:55:07.129Z,24.4
2018-09-04T00:55:56.753Z,24.4
2018-09-04T00:56:46.883Z,24.4
2018-09-04T00:57:37.902Z,24.4
2018-09-04T00:58:27.476Z,24.4
2018-09-04T00:59:17.241Z,24.4
2018-09-04T01:00:08.274Z,24.4
2018-09-04T01:00:57.622Z,24.4
2018-09-04T01:01:48.240Z,24.4
2018-09-04T01:02:37.462Z,24.4
2018-09-04T01:03:27.944Z,24.4
2018-09-04T01:04:17.295Z,24.4
2018-09-04T01:05:08.509Z,24.4
2018-09-04T01:05:58.020Z,24.4
2018-09-04T01:06:48.653Z,24.4
2018-09-04T01:07:38.809Z,24.4
2018-09-04T01:08:28.011Z,24.4
2018-09-04T01:09:18.343Z,24.4
2018-09-04T01:10:08.869Z,24.4
2018-09-04T01:10:58.668Z,24.4
2018-09-04T01:11:48.498Z,24.4
2018-09-04T01:12:38.724Z,24.4
2018-09-04T01:13:28.915Z,24.4
2018-09-04T01:14:19.557Z,24.4
2018-09-04T01:15:09.299Z,24.4
2018-09-04T01:15:58.507Z,24.4
2018-09-04T01:16:48.840Z,24.4
2018-09-04T01:17:39.219Z,24.4
2018-09-04T01:18:29.816Z,24.4
2018-09-04T01:19:19.143Z,24.4
2018-09-04T01:20:10.006Z,24.4
2018-09-04T01:20:59.493Z,24.4
2018-09-04T01:21:48.957Z,24.4
2018-09-04T01:22:40.401Z,24.4
2018-09-04T01:23:29.434Z,24.4
2018-09-04T01:24:19.741Z,24.4
2018-09-04T01:25:10.036Z,24.4
2018-09-04T01:25:58.971Z,24.4
2018-09-04T01:26:49.319Z,24.4
2018-09-04T01:27:40.233Z,24.4
2018-09-04T01:28:29.825Z,24.4
2018-09-04T01:29:20.121Z,24.4
2018-09-04T01:30:11.018Z,24.4
2018-09-04T01:30:59.977Z,24.4
2018-09-04T01:31:50.038Z,24.4
2018-09-04T01:32:40.388Z,24.4
2018-09-04T01:33:30.992Z,24.4
2018-09-04T01:34:20.820Z,24.4
2018-09-04T01:35:10.832Z,24.4
2018-09-04T01:36:00.629Z,24.4
2018-09-04T01:36:49.840Z,24.4
2018-09-04T01:37:41.008Z,24.4
2018-09-04T01:38:29.942Z,24.4
2018-09-04T01:39:20.807Z,24.4
2018-09-04T01:40:11.265Z,24.4
2018-09-04T01:41:00.465Z,24.4
2018-09-04T01:41:51.091Z,24.4
2018-09-04T01:42:41.502Z,24.4
2018-09-04T01:43:30.088Z,24.4
2018-09-04T01:44:21.032Z,24.4
2018-09-04T01:45:11.037Z,24.4
2018-09-04T01:46:00.800Z,24.4
2018-09-04T01:46:51.744Z,24.4
2018-09-04T01:47:40.939Z,24.4
2018-09-04T01:48:31.854Z,24.4
2018-09-04T01:49:21.641Z,24.4
2018-09-04T01:50:12.021Z,24.4
2018-09-04T01:51:01.737Z,24.4
2018-09-04T01:51:51.862Z,24.4
2018-09-04T01:52:41.896Z,24.3
2018-09-04T01:53:32.277Z,24.4
2018-09-04T01:54:22.261Z,24.4
2018-09-04T01:55:12.101Z,24.4
2018-09-04T01:56:01.554Z,24.4
2018-09-04T01:56:52.534Z,24.4
2018-09-04T01:57:41.741Z,24.4
2018-09-04T01:58:33.242Z,24.4
2018-09-04T01:59:21.830Z,24.4
2018-09-04T02:00:11.619Z,24.4
2018-09-04T02:01:02.259Z,24.4
2018-09-04T02:01:52.329Z,24.3
2018-09-04T02:02:42.959Z,24.4
2018-09-04T02:03:32.508Z,24.4
2018-09-04T02:04:22.558Z,24.4
2018-09-04T02:05:13.231Z,24.4
2018-09-04T02:06:02.953Z,24.4
2018-09-04T02:06:52.436Z,24.4
2018-09-04T02:07:42.500Z,24.4
2018-09-04T02:08:32.505Z,24.4
2018-09-04T02:09:23.468Z,24.4
2018-09-04T02:10:12.681Z,24.4
2018-09-04T02:11:03.900Z,24.4
2018-09-04T02:11:53.965Z,24.4
2018-09-04T02:12:43.147Z,24.4
2018-09-04T02:13:33.467Z,24.4
2018-09-04T02:14:23.955Z,24.4
2018-09-04T02:15:13.327Z,24.4
2018-09-04T02:16:04.017Z,24.4
2018-09-04T02:16:54.065Z,24.4
2018-09-04T02:17:43.270Z,24.4
2018-09-04T02:18:33.570Z,24.4
2018-09-04T02:19:24.222Z,24.4
2018-09-04T02:20:14.005Z,24.4
2018-09-04T02:21:04.164Z,24.4
2018-09-04T02:21:53.600Z,24.4
2018-09-04T02:22:43.647Z,24.4
2018-09-04T02:23:34.035Z,24.4
2018-09-04T02:24:23.474Z,24.4
2018-09-04T02:25:14.463Z,24.4
2018-09-04T02:26:04.522Z,24.4
2018-09-04T02:26:54.499Z,24.4
2018-09-04T02:27:44.899Z,24.4
2018-09-04T02:28:34.391Z,24.4
2018-09-04T02:29:25.251Z,24.4
2018-09-04T02:30:14.865Z,24.4
2018-09-04T02:31:04.305Z,24.4
2018-09-04T02:31:54.783Z,24.4
2018-09-04T02:32:44.454Z,24.4
2018-09-04T02:33:34.512Z,24.4
2018-09-04T02:34:24.544Z,24.4
2018-09-04T02:35:15.267Z,24.4
2018-09-04T02:36:04.791Z,24.4
2018-09-04T02:36:55.064Z,24.4
2018-09-04T02:37:44.673Z,24.4
2018-09-04T02:38:35.794Z,24.4
2018-09-04T02:39:25.508Z,24.4
2018-09-04T02:40:15.013Z,24.4
2018-09-04T02:41:05.704Z,24.4
2018-09-04T02:41:56.043Z,24.4
2018-09-04T02:42:45.481Z,24.4
2018-09-04T02:43:35.861Z,24.4
2018-09-04T02:44:26.464Z,24.4
2018-09-04T02:45:16.258Z,24.4
2018-09-04T02:46:05.466Z,24.4
2018-09-04T02:46:55.811Z,24.4
2018-09-04T02:47:45.895Z,24.4
2018-09-04T02:48:36.843Z,24.4
2018-09-04T02:49:26.321Z,24.4
2018-09-04T02:50:16.553Z,24.4
2018-09-04T02:51:06.686Z,24.4
2018-09-04T02:51:56.758Z,24.4
2018-09-04T02:52:47.400Z,24.4
2018-09-04T02:53:36.086Z,24.4
2018-09-04T02:54:26.133Z,24.4
2018-09-04T02:55:16.940Z,24.4
2018-09-04T02:56:06.823Z,24.4
2018-09-04T02:56:56.863Z,24.4
2018-09-04T02:57:46.895Z,24.4
2018-09-04T02:58:35.847Z,24.4
2018-09-04T02:59:27.382Z,24.4
2018-09-04T03:00:17.312Z,24.4
2018-09-04T03:01:07.790Z,24.4
2018-09-04T03:01:57.310Z,24.4
2018-09-04T03:02:47.316Z,24.4
2018-09-04T03:03:37.097Z,24.4
2018-09-04T03:04:28.058Z,24.4
2018-09-04T03:05:18.525Z,24.3
2018-09-04T03:06:07.022Z,24.3
2018-09-04T03:06:57.617Z,24.4
2018-09-04T03:07:48.004Z,24.4
2018-09-04T03:08:37.192Z,24.4
2018-09-04T03:09:26.653Z,24.4
2018-09-04T03:10:17.299Z,24.4
2018-09-04T03:11:08.229Z,24.4
2018-09-04T03:11:58.669Z,24.4
2018-09-04T03:12:47.824Z,24.4
2018-09-04T03:13:40.685Z,24.4
2018-09-04T03:14:27.951Z,24.4
2018-09-04T03:15:17.723Z,24.4
2018-09-04T03:16:07.784Z,24.4
2018-09-04T03:16:57.540Z,24.4
2018-09-04T03:17:48.211Z,24.4
2018-09-04T03:18:38.204Z,24.4
2018-09-04T03:19:28.321Z,24.4
2018-09-04T03:20:19.224Z,24.4
2018-09-04T03:21:08.719Z,24.4
2018-09-04T03:21:58.031Z,24.4
2018-09-04T03:22:48.903Z,24.4
2018-09-04T03:23:38.928Z,24.4
2018-09-04T03:24:29.339Z,24.4
2018-09-04T03:25:19.742Z,24.3
2018-09-04T03:26:08.898Z,24.4
2018-09-04T03:26:58.915Z,24.4
2018-09-04T03:27:48.996Z,24.4
2018-09-04T03:28:39.576Z,24.4
2018-09-04T03:29:29.443Z,24.4
2018-09-04T03:30:20.369Z,24.4
2018-09-04T03:31:09.871Z,24.4
2018-09-04T03:31:59.333Z,24.4
2018-09-04T03:32:49.375Z,24.3
2018-09-04T03:33:39.448Z,24.4
2018-09-04T03:34:30.324Z,24.4
2018-09-04T03:35:20.325Z,24.4
2018-09-04T03:36:09.795Z,24.4
2018-09-04T03:36:59.953Z,24.4
2018-09-04T03:37:49.733Z,24.4
2018-09-04T03:38:40.625Z,24.4
2018-09-04T03:39:29.613Z,24.3
2018-09-04T03:40:20.782Z,24.4
2018-09-04T03:41:10.510Z,24.3
2018-09-04T03:42:00.447Z,24.3
2018-09-04T03:42:50.442Z,24.4
2018-09-04T03:43:40.469Z,24.3
2018-09-04T03:44:30.915Z,24.3
2018-09-04T03:45:20.929Z,24.3
2018-09-04T03:46:09.868Z,24.3
2018-09-04T03:47:01.461Z,24.3
2018-09-04T03:47:49.632Z,24.3
2018-09-04T03:48:40.579Z,24.3
2018-09-04T03:49:29.977Z,24.3
2018-09-04T03:50:20.394Z,24.3
2018-09-04T03:51:10.507Z,24.3
2018-09-04T03:52:01.424Z,24.3
2018-09-04T03:52:51.173Z,24.3
2018-09-04T03:53:41.440Z,24.3
2018-09-04T03:54:31.631Z,24.3
2018-09-04T03:55:21.416Z,24.3
2018-09-04T03:56:12.298Z,24.3
2018-09-04T03:57:01.740Z,24.3
2018-09-04T03:57:51.571Z,24.3
2018-09-04T03:58:42.054Z,24.3
2018-09-04T03:59:32.324Z,24.3
2018-09-04T04:00:20.858Z,24.3
2018-09-04T04:01:11.947Z,24.3
2018-09-04T04:02:01.653Z,24.3
2018-09-04T04:02:51.649Z,24.3
2018-09-04T04:03:41.181Z,24.3
2018-09-04T04:04:32.710Z,24.3
2018-09-04T04:05:22.420Z,24.3
2018-09-04T04:06:12.401Z,24.3
2018-09-04T04:07:02.540Z,24.3
2018-09-04T04:07:52.084Z,24.3
2018-09-04T04:08:42.108Z,24.3
2018-09-04T04:09:32.491Z,24.3
2018-09-04T04:10:22.268Z,24.3
2018-09-04T04:11:12.871Z,24.3
2018-09-04T04:12:04.338Z,24.2
2018-09-04T04:12:52.728Z,24.3
2018-09-04T04:13:42.503Z,24.3
2018-09-04T04:14:32.880Z,24.3
2018-09-04T04:15:22.890Z,24.3
2018-09-04T04:16:13.825Z,24.2
2018-09-04T04:17:02.415Z,24.2
2018-09-04T04:17:52.808Z,24.2
2018-09-04T04:18:43.474Z,24.2
2018-09-04T04:19:33.810Z,24.2
2018-09-04T04:20:23.559Z,24.2
2018-09-04T04:21:13.636Z,24.2
2018-09-04T04:22:03.124Z,24.2
2018-09-04T04:22:53.602Z,24.2
2018-09-04T04:23:43.508Z,24.2
2018-09-04T04:24:33.632Z,24.2
2018-09-04T04:25:23.103Z,24.1
2018-09-04T04:26:13.796Z,24.2
2018-09-04T04:27:04.309Z,24.2
2018-09-04T04:27:53.906Z,24.2
2018-09-04T04:28:44.219Z,24.2
2018-09-04T04:29:33.676Z,24.1
2018-09-04T04:30:24.669Z,24.2
2018-09-04T04:31:14.379Z,24.1
2018-09-04T04:32:04.479Z,24.1
2018-09-04T04:32:54.052Z,24.1
2018-09-04T04:33:44.646Z,24.1
2018-09-04T04:34:34.411Z,24.1
2018-09-04T04:35:24.708Z,24.1
2018-09-04T04:36:14.526Z,24.1
2018-09-04T04:37:04.566Z,24.1
2018-09-04T04:37:54.908Z,24.1
2018-09-04T04:38:45.049Z,24.1
2018-09-04T04:39:34.226Z,24.1
2018-09-04T04:40:24.616Z,24.1
2018-09-04T04:41:15.215Z,24.1
2018-09-04T04:42:05.008Z,24.1
2018-09-04T04:42:53.863Z,24.1
2018-09-04T05:00:35.565Z,24
2018-09-04T05:01:23.273Z,24
2018-09-04T05:02:13.345Z,24
2018-09-04T05:03:04.277Z,24.1
2018-09-04T05:03:53.212Z,24.1
2018-09-04T05:04:43.842Z,24.1
2018-09-04T05:05:35.064Z,24.1
2018-09-04T05:06:24.542Z,24
2018-09-04T05:07:14.027Z,24
2018-09-04T05:08:03.772Z,24
2018-09-04T05:08:54.095Z,24
2018-09-04T05:09:44.496Z,24
2018-09-04T05:10:33.949Z,24
2018-09-04T05:11:26.070Z,24
2018-09-04T05:12:14.954Z,24
2018-09-04T05:13:04.481Z,24
2018-09-04T05:13:53.996Z,24
2018-09-04T05:14:44.890Z,24
2018-09-04T05:15:34.653Z,24
2018-09-04T05:16:25.031Z,24
2018-09-04T05:17:14.206Z,24
2018-09-04T05:18:05.163Z,24
2018-09-04T05:18:54.972Z,24
2018-09-04T05:19:45.106Z,24
2018-09-04T05:20:34.748Z,24
2018-09-04T05:21:25.094Z,24
2018-09-04T05:22:15.268Z,24
2018-09-04T05:23:05.235Z,24
2018-09-04T05:23:54.788Z,24
2018-09-04T05:24:45.078Z,24
2018-09-04T05:25:35.688Z,24
2018-09-04T05:26:25.489Z,24
2018-09-04T05:27:15.354Z,24
2018-09-04T05:28:04.238Z,23.9
2018-09-04T05:28:56.776Z,24
2018-09-04T05:29:46.095Z,24
2018-09-04T05:30:36.175Z,23.9
2018-09-04T05:31:25.617Z,24
2018-09-04T05:32:15.811Z,24
2018-09-04T05:33:05.221Z,23.9
2018-09-04T05:33:56.432Z,23.9
2018-09-04T05:34:46.155Z,23.9
2018-09-04T05:35:36.518Z,23.9
2018-09-04T05:36:26.505Z,23.9
2018-09-04T05:37:16.085Z,23.9
2018-09-04T05:38:06.414Z,23.9
2018-09-04T05:38:56.997Z,23.9
2018-09-04T05:39:46.207Z,23.9
2018-09-04T05:40:36.652Z,23.9
2018-09-04T05:41:25.799Z,23.9
2018-09-04T05:42:16.977Z,23.9
2018-09-04T05:43:07.102Z,23.9
2018-09-04T05:43:56.822Z,23.9
2018-09-04T05:44:46.985Z,23.9
2018-09-04T05:45:37.331Z,23.9
2018-09-04T05:46:27.421Z,23.9
2018-09-04T05:47:16.498Z,23.9
2018-09-04T05:48:06.573Z,23.9
2018-09-04T05:48:56.953Z,23.9
2018-09-04T05:49:47.507Z,23.9
2018-09-04T05:50:37.055Z,23.9
2018-09-04T05:51:26.270Z,23.9
2018-09-04T05:52:17.327Z,23.9
2018-09-04T05:53:08.124Z,23.9
2018-09-04T05:53:57.870Z,23.9
2018-09-04T05:54:47.967Z,23.9
2018-09-04T05:55:37.712Z,23.9
2018-09-04T05:56:28.330Z,23.9
2018-09-04T05:57:18.119Z,23.9
2018-09-04T05:58:07.476Z,23.9
2018-09-04T05:58:57.142Z,23.9
2018-09-04T05:59:48.590Z,23.9
2018-09-04T06:00:38.438Z,23.9
2018-09-04T06:01:28.277Z,23.9
2018-09-04T06:02:18.548Z,23.9
2018-09-04T06:03:08.001Z,23.9
2018-09-04T06:03:58.666Z,23.9
2018-09-04T06:04:48.141Z,23.9
2018-09-04T06:05:38.201Z,23.9
2018-09-04T06:06:28.519Z,23.9
2018-09-04T06:07:18.897Z,23.9
2018-09-04T06:08:09.228Z,23.9
2018-09-04T06:08:58.489Z,23.9
2018-09-04T06:09:48.559Z,23.9
2018-09-04T06:10:39.176Z,23.9
2018-09-04T06:11:29.627Z,23.9
2018-09-04T06:12:18.976Z,23.9
2018-09-04T06:13:09.413Z,23.9
2018-09-04T06:13:59.268Z,23.9
2018-09-04T06:14:50.006Z,23.9
2018-09-04T06:15:39.357Z,23.9
2018-09-04T06:16:28.590Z,23.9
2018-09-04T06:17:19.404Z,23.9
2018-09-04T06:18:09.696Z,23.9
2018-09-04T06:18:59.300Z,23.9
2018-09-04T06:19:50.198Z,23.9
2018-09-04T06:20:40.251Z,23.9
2018-09-04T06:21:29.406Z,23.9
2018-09-04T06:22:19.760Z,23.9
2018-09-04T06:23:10.505Z,23.9
2018-09-04T06:23:59.973Z,23.9
2018-09-04T06:24:50.573Z,23.9
2018-09-04T06:25:40.718Z,23.9
2018-09-04T06:26:30.696Z,23.9
2018-09-04T06:27:19.598Z,23.9
2018-09-04T06:28:10.857Z,23.9
2018-09-04T06:29:00.355Z,23.9
2018-09-04T06:29:50.211Z,23.9
2018-09-04T06:30:40.221Z,23.9
2018-09-04T06:31:31.345Z,23.9
2018-09-04T06:32:20.855Z,23.9
2018-09-04T06:33:11.828Z,23.9
2018-09-04T06:34:00.483Z,23.9
2018-09-04T06:34:49.875Z,23.8
2018-09-04T06:35:41.762Z,23.9
2018-09-04T06:36:31.961Z,23.9
2018-09-04T06:37:21.543Z,23.9
2018-09-04T06:38:11.620Z,23.9
2018-09-04T06:39:01.121Z,23.9
2018-09-04T06:39:50.880Z,23.9
2018-09-04T06:40:40.858Z,23.9
2018-09-04T06:41:31.316Z,23.9
2018-09-04T06:42:21.897Z,23.9
2018-09-04T06:43:11.382Z,23.9
2018-09-04T06:44:00.243Z,23.9
2018-09-04T06:44:51.091Z,23.9
2018-09-04T06:45:41.721Z,23.8
2018-09-04T06:46:32.738Z,23.8
2018-09-04T06:47:21.560Z,23.8
2018-09-04T06:48:11.614Z,23.8
2018-09-04T06:49:01.426Z,23.9
2018-09-04T06:49:51.754Z,23.8
2018-09-04T06:50:42.050Z,23.8
2018-09-04T06:51:32.333Z,23.8
2018-09-04T06:52:21.295Z,23.8
2018-09-04T06:53:12.467Z,23.8
2018-09-04T06:54:02.485Z,23.9
2018-09-04T06:54:52.208Z,23.8
2018-09-04T06:55:42.651Z,23.9
2018-09-04T06:56:32.440Z,23.9
2018-09-04T06:57:22.770Z,23.9
2018-09-04T06:58:11.672Z,23.8
2018-09-04T06:59:02.345Z,23.8
2018-09-04T06:59:53.237Z,23.8
2018-09-04T07:00:42.735Z,23.8
2018-09-04T07:01:32.255Z,23.9
2018-09-04T07:02:21.797Z,23.9
2018-09-04T07:03:13.170Z,23.9
2018-09-04T07:04:03.344Z,23.8
2018-09-04T07:04:53.402Z,23.8
2018-09-04T07:05:42.342Z,23.9
2018-09-04T07:06:32.145Z,23.9
2018-09-04T07:07:23.022Z,23.8
2018-09-04T07:08:12.547Z,23.8
2018-09-04T07:09:03.501Z,23.9
2018-09-04T07:09:53.313Z,23.8
2018-09-04T07:10:43.325Z,23.9
2018-09-04T07:11:33.344Z,23.9
2018-09-04T07:12:23.436Z,23.8
2018-09-04T07:13:13.824Z,23.8
2018-09-04T07:14:04.054Z,23.8
2018-09-04T07:14:54.427Z,23.8
2018-09-04T07:15:44.251Z,23.8
2018-09-04T07:16:34.492Z,23.8
2018-09-04T07:17:24.872Z,23.8
2018-09-04T07:18:13.866Z,23.8
2018-09-04T07:19:04.804Z,23.8
2018-09-04T07:19:54.292Z,23.8
2018-09-04T07:20:44.569Z,23.9
2018-09-04T07:21:34.321Z,23.9
2018-09-04T07:22:24.699Z,23.8
2018-09-04T07:23:14.752Z,23.9
2018-09-04T07:24:05.463Z,23.9
2018-09-04T07:24:54.675Z,23.9
2018-09-04T07:25:44.949Z,23.8
2018-09-04T07:26:35.264Z,23.8
2018-09-04T07:27:24.313Z,23.8
2018-09-04T07:28:15.008Z,23.8
2018-09-04T07:29:04.383Z,23.8
2018-09-04T07:29:55.560Z,23.8
2018-09-04T07:30:44.783Z,23.8
2018-09-04T07:31:35.500Z,23.9
2018-09-04T07:32:25.468Z,23.9
2018-09-04T07:33:15.813Z,23.8
2018-09-04T07:34:05.345Z,23.8
2018-09-04T07:34:55.672Z,23.9
2018-09-04T07:35:45.522Z,23.9
2018-09-04T07:36:37.250Z,23.8
2018-09-04T07:37:25.282Z,23.8
2018-09-04T07:38:16.181Z,23.8
2018-09-04T07:39:06.280Z,23.9
2018-09-04T07:39:56.315Z,23.8
2018-09-04T07:40:45.572Z,23.9
2018-09-04T07:41:36.871Z,23.8
2018-09-04T07:42:25.680Z,23.8
2018-09-04T07:43:16.336Z,23.8
2018-09-04T07:44:05.287Z,23.9
2018-09-04T07:44:56.086Z,23.9
2018-09-04T07:45:46.742Z,23.9
2018-09-04T07:46:36.006Z,23.9
2018-09-04T07:47:26.352Z,23.9
2018-09-04T07:48:16.729Z,23.9
2018-09-04T07:49:05.949Z,23.9
2018-09-04T07:49:56.887Z,23.9
2018-09-04T07:50:46.875Z,23.9
2018-09-04T07:51:36.929Z,23.9
2018-09-04T07:52:27.018Z,23.9
2018-09-04T07:53:16.797Z,23.9
2018-09-04T07:54:06.820Z,23.9
2018-09-04T07:54:56.876Z,23.9
2018-09-04T07:55:47.521Z,23.9
2018-09-04T07:56:37.639Z,23.9
2018-09-04T07:57:27.132Z,23.9
2018-09-04T07:58:17.483Z,23.9
2018-09-04T07:59:08.101Z,23.8
2018-09-04T07:59:57.246Z,23.8
2018-09-04T08:00:47.188Z,23.8
2018-09-04T08:01:38.257Z,23.8
2018-09-04T08:02:27.211Z,23.8
2018-09-04T08:03:17.058Z,23.8
2018-09-04T08:04:07.226Z,23.8
2018-09-04T08:04:57.143Z,23.8
2018-09-04T08:05:46.371Z,23.8
2018-09-04T08:06:37.973Z,23.8
2018-09-04T08:07:27.635Z,23.8
2018-09-04T08:08:17.168Z,23.8
2018-09-04T08:09:06.958Z,23.8
2018-09-04T08:09:57.765Z,23.8
2018-09-04T08:10:47.948Z,23.8
2018-09-04T08:11:38.502Z,23.8
2018-09-04T08:12:29.063Z,23.8
2018-09-04T08:13:18.976Z,23.9
2018-09-04T08:14:08.983Z,23.8
2018-09-04T08:14:58.260Z,23.9
2018-09-04T08:15:48.820Z,23.9
2018-09-04T08:16:39.210Z,23.8
2018-09-04T08:17:28.880Z,23.8
2018-09-04T08:18:18.121Z,23.9
2018-09-04T08:19:08.915Z,23.9
2018-09-04T08:19:58.522Z,23.9
2018-09-04T08:20:50.848Z,23.9
2018-09-04T08:21:39.607Z,23.9
2018-09-04T08:22:29.050Z,23.9
2018-09-04T09:15:03.989Z,24
2018-09-04T09:16:09.174Z,24.1
2018-09-04T09:16:44.459Z,24.1
2018-09-04T09:17:33.726Z,24
2018-09-04T09:18:24.781Z,24
2018-09-04T09:19:14.619Z,24
2018-09-04T09:20:04.210Z,24.1
2018-09-04T09:20:54.424Z,24.1
2018-09-04T09:21:43.939Z,24.1
2018-09-04T09:22:34.531Z,24.1
2018-09-04T09:23:25.438Z,24.1
2018-09-04T09:24:14.656Z,24.1
2018-09-04T09:25:04.953Z,24.1
2018-09-04T09:25:55.286Z,24.1
2018-09-04T09:26:45.383Z,24.1
2018-09-04T09:27:34.658Z,24.1
2018-09-04T09:28:24.213Z,24.1
2018-09-04T09:29:14.437Z,24.1
2018-09-04T09:30:05.151Z,24.1
2018-09-04T09:30:55.444Z,24.1
2018-09-04T09:31:45.003Z,24.1
2018-09-04T09:32:35.069Z,24.1
2018-09-04T09:33:25.372Z,24.1
2018-09-04T09:34:16.221Z,24.1
2018-09-04T09:35:06.289Z,24.1
2018-09-04T09:36:47.869Z,24.1
2018-09-04T09:37:35.760Z,24.1
2018-09-04T09:38:25.768Z,24.1
2018-09-04T09:39:15.525Z,24.1
2018-09-04T09:40:05.708Z,24.1
2018-09-04T09:40:54.255Z,24.1
2018-09-04T09:41:45.957Z,24.1
2018-09-04T09:42:36.312Z,24.1
2018-09-04T09:43:26.462Z,24.1
2018-09-04T09:44:15.490Z,24.1
2018-09-04T09:45:06.837Z,24.1
2018-09-04T09:45:56.384Z,24.1
2018-09-04T09:46:46.124Z,24.1
2018-09-04T09:47:37.052Z,24.1
2018-09-04T09:48:26.762Z,24.1
2018-09-04T09:49:17.182Z,24.1
2018-09-04T09:50:05.367Z,24.1
2018-09-04T09:50:58.020Z,24.1
2018-09-04T09:51:46.806Z,24.1
2018-09-04T09:52:39.100Z,24.1
2018-09-04T09:53:31.204Z,24.1
2018-09-04T09:54:17.364Z,24.1
2018-09-04T09:55:07.071Z,24.1
2018-09-04T09:55:57.316Z,24.1
2018-09-04T09:56:48.076Z,24.1
2018-09-04T09:57:36.882Z,24.1
2018-09-04T09:58:26.359Z,24.1
2018-09-04T09:59:17.709Z,24.1
2018-09-04T10:00:08.744Z,24.1
2018-09-04T10:00:58.730Z,24.1
2018-09-04T10:01:47.836Z,24.1
2018-09-04T10:02:37.574Z,24.1
2018-09-04T10:03:27.858Z,24.1
2018-09-04T10:04:19.360Z,24.1
2018-09-04T10:05:08.334Z,24.1
2018-09-04T10:05:57.001Z,24.1
2018-09-04T10:06:47.709Z,24.1
2018-09-04T10:07:39.180Z,24.1
2018-09-04T10:08:28.732Z,24.1
2018-09-04T10:09:17.676Z,24.1
2018-09-04T10:10:09.248Z,24.1
2018-09-04T10:10:57.762Z,24.1
2018-09-04T10:11:48.012Z,24.1
2018-09-04T10:12:38.037Z,24.1
2018-09-04T10:13:28.371Z,24.1
2018-09-04T10:14:18.726Z,24.1
2018-09-04T10:15:23.991Z,24.1
2018-09-04T10:15:58.325Z,24.2
2018-09-04T10:16:48.899Z,24.1
2018-09-04T10:17:38.456Z,24.1
2018-09-04T10:18:28.173Z,24.2
2018-09-04T10:19:18.053Z,24.1
2018-09-04T10:20:09.298Z,24.1
2018-09-04T10:20:59.243Z,24.1
2018-09-04T10:21:49.076Z,24.1
2018-09-04T10:22:39.093Z,24.2
2018-09-04T10:23:28.964Z,24.2
2018-09-04T10:24:18.480Z,24.2
2018-09-04T10:25:08.450Z,24.2
2018-09-04T10:25:59.964Z,24.2
2018-09-04T10:26:48.925Z,24.1
2018-09-04T10:27:39.737Z,24.1
2018-09-04T10:28:29.617Z,24.2
2018-09-04T10:29:33.983Z,24.2
2018-09-04T10:30:09.945Z,24.2
2018-09-04T10:30:59.157Z,24.2
2018-09-04T10:31:49.204Z,24.2
2018-09-04T10:32:39.577Z,24.2
2018-09-04T10:33:29.150Z,24.2
2018-09-04T10:34:19.744Z,24.2
2018-09-04T10:35:09.801Z,24.2
2018-09-04T10:36:00.047Z,24.2
2018-09-04T10:36:50.174Z,24.2
2018-09-04T10:37:57.977Z,24.2
2018-09-04T16:15:55.903Z,24.6
2018-09-04T16:16:45.972Z,24.6
2018-09-04T16:17:35.206Z,24.6
2018-09-04T16:18:26.179Z,24.6
2018-09-04T16:19:16.711Z,24.6
2018-09-04T16:20:07.499Z,24.6
2018-09-04T16:20:59.476Z,24.6
2018-09-04T16:21:47.843Z,24.6
2018-09-04T16:22:52.168Z,24.6
2018-09-04T16:23:41.983Z,24.6
2018-09-04T16:24:18.338Z,24.6
2018-09-04T16:25:09.154Z,24.6
2018-09-04T16:25:58.341Z,24.6
2018-09-04T16:27:02.241Z,24.6
2018-09-04T16:27:39.695Z,24.6
2018-09-04T16:28:28.175Z,24.6
2018-09-04T16:29:19.367Z,24.6
2018-09-04T16:30:24.702Z,24.6
2018-09-04T16:30:59.341Z,24.6
2018-09-04T16:31:48.539Z,24.6
2018-09-04T16:32:39.849Z,24.6
2018-09-04T16:33:28.417Z,24.6
2018-09-04T16:34:20.932Z,24.6
2018-09-04T16:35:11.002Z,24.6
2018-09-04T16:36:00.092Z,24.6
2018-09-04T16:37:03.935Z,24.6
2018-09-04T16:37:40.918Z,24.6
2018-09-04T16:38:29.415Z,24.6
2018-09-04T16:39:18.935Z,24.6
2018-09-04T16:40:08.791Z,24.6
2018-09-04T16:41:15.001Z,24.6
2018-09-04T16:41:49.291Z,24.6
2018-09-04T16:42:40.302Z,24.6
2018-09-04T16:43:28.959Z,24.6
2018-09-04T16:44:33.864Z,24.6
2018-09-04T16:45:24.795Z,24.6
2018-09-04T16:45:59.443Z,24.6
2018-09-04T16:46:50.626Z,24.6
2018-09-04T16:47:54.252Z,24.6
2018-09-04T16:48:44.746Z,24.6
2018-09-04T16:49:48.823Z,24.6
2018-09-04T16:50:09.209Z,24.6
2018-09-04T16:51:15.386Z,24.6
2018-09-04T16:51:50.944Z,24.6
2018-09-04T16:52:40.708Z,24.6
2018-09-04T16:53:30.261Z,24.6
2018-09-04T16:54:20.324Z,24.6
2018-09-04T16:55:11.671Z,24.6
2018-09-04T16:55:59.725Z,24.6
2018-09-04T16:56:49.764Z,24.6
2018-09-04T16:57:41.713Z,24.6
2018-09-04T16:58:31.194Z,24.6
2018-09-04T16:59:19.659Z,24.6
2018-09-04T17:00:11.023Z,24.6
2018-09-04T17:01:00.363Z,24.6
2018-09-04T17:01:51.795Z,24.6
2018-09-04T17:02:41.303Z,24.6
2018-09-04T17:03:31.163Z,24.6
2018-09-04T17:04:36.286Z,24.6
2018-09-04T17:05:12.612Z,24.6
2018-09-04T17:06:01.516Z,24.6
2018-09-04T17:06:50.823Z,24.6
2018-09-04T17:07:41.942Z,24.6
2018-09-04T17:08:32.347Z,24.6
2018-09-04T17:09:21.434Z,24.6
2018-09-04T17:10:10.757Z,24.6
2018-09-04T17:11:02.294Z,24.6
2018-09-04T17:11:51.630Z,24.6
2018-09-04T17:12:42.098Z,24.6
2018-09-04T17:13:31.692Z,24.6
2018-09-04T17:14:21.790Z,24.6
2018-09-04T17:15:12.183Z,24.6
2018-09-04T17:16:16.421Z,24.6
2018-09-04T17:16:51.623Z,24.6
2018-09-04T17:17:56.859Z,24.6
2018-09-04T17:18:31.653Z,24.6
2018-09-04T17:19:23.025Z,24.6
2018-09-04T17:20:12.379Z,24.6
2018-09-04T17:21:02.252Z,24.6
2018-09-04T17:21:53.185Z,24.6
2018-09-04T17:22:42.047Z,24.6
2018-09-04T17:24:22.459Z,24.6
2018-09-04T17:25:12.911Z,24.6
2018-09-04T17:26:03.073Z,24.6
2018-09-04T17:27:07.072Z,24.6
2018-09-04T17:27:42.421Z,24.6
2018-09-04T17:28:34.041Z,24.6
2018-09-04T17:29:23.849Z,24.6
2018-09-04T17:30:12.885Z,24.6
2018-09-04T17:31:05.047Z,24.6
2018-09-04T17:32:08.679Z,24.6
2018-09-04T17:32:44.046Z,24.6
2018-09-04T17:33:32.352Z,24.6
2018-09-04T17:34:20.905Z,24.6
2018-09-04T17:35:11.605Z,24.6
2018-09-04T17:36:02.227Z,24.6
2018-09-04T17:36:52.289Z,24.6
2018-09-04T17:37:41.712Z,24.6
2018-09-04T17:38:31.815Z,24.6
2018-09-04T17:39:21.886Z,24.6
2018-09-04T17:40:26.608Z,24.5
2018-09-04T17:41:01.799Z,24.6
2018-09-04T17:41:52.926Z,24.6
2018-09-04T17:42:42.381Z,24.6
2018-09-04T17:43:32.186Z,24.5
2018-09-04T17:44:21.961Z,24.5
2018-09-04T17:45:12.338Z,24.5
2018-09-04T17:46:02.119Z,24.5
2018-09-04T17:46:52.556Z,24.5
2018-09-04T17:47:44.770Z,24.5
2018-09-04T17:48:32.981Z,24.5
2018-09-04T17:49:23.771Z,24.5
2018-09-04T17:50:12.770Z,24.5
2018-09-04T17:51:03.645Z,24.5
2018-09-04T17:51:53.155Z,24.5
2018-09-04T17:52:43.507Z,24.5
2018-09-04T17:53:33.022Z,24.5
2018-09-04T17:54:23.962Z,24.5
2018-09-04T17:55:13.463Z,24.5
2018-09-04T17:56:03.775Z,24.4
2018-09-04T17:56:53.543Z,24.4
2018-09-04T17:57:43.068Z,24.4
2018-09-04T17:58:33.700Z,24.4
2018-09-04T17:59:24.045Z,24.4
2018-09-04T18:00:14.091Z,24.4
2018-09-04T18:01:05.291Z,24.4
2018-09-04T18:01:53.924Z,24.4
2018-09-04T18:02:43.980Z,24.4
2018-09-04T18:03:34.107Z,24.4
2018-09-04T18:04:23.836Z,24.4
2018-09-04T18:05:14.236Z,24.4
2018-09-04T18:06:04.869Z,24.4
2018-09-04T18:06:53.781Z,24.4
2018-09-04T18:07:44.452Z,24.4
2018-09-04T18:08:34.521Z,24.4
2018-09-04T18:09:24.444Z,24.4
2018-09-04T18:10:14.705Z,24.4
2018-09-04T18:11:03.909Z,24.4
2018-09-04T18:11:54.947Z,24.4
2018-09-04T18:12:45.439Z,24.4
2018-09-04T18:13:35.336Z,24.4
2018-09-04T18:14:25.365Z,24.4